Time;durP1;ratioP1;P1;durP2;ratioP2;P2;SDS_P1;SDS_P2;PMS_P1;PMS_P2;Temp;Humidity;BMP_temperature;BMP_pressure;BME280_temperature;BME280_humidity;BME280_pressure;Samples;Min_cycle;Max_cycle;Signal;HPM_P1;HPM_P2
2022/04/24 00:00:33;;;;;;;14.13;6.30;;;12.50;93.40;;;12.57;63.43;94509.59;5056310;28;20501;-55
2022/04/24 00:03:00;;;;;;;10.63;5.50;;;12.40;93.30;;;12.53;62.97;94508.25;5056084;28;20861;-55
2022/04/24 00:05:27;;;;;;;10.60;5.40;;;12.40;93.20;;;12.50;62.91;94505.94;5057085;28;21014;-56
2022/04/24 00:07:56;;;;;;;12.70;6.40;;;12.40;93.20;;;12.45;62.87;94509.06;5052429;28;20471;-56
2022/04/24 00:10:23;;;;;;;17.10;6.00;;;12.40;93.30;;;12.42;62.87;94504.09;5050330;28;20987;-55
2022/04/24 00:12:50;;;;;;;17.93;5.47;;;12.30;93.10;;;12.39;62.93;94509.69;5056843;28;20615;-55
2022/04/24 00:15:17;;;;;;;13.53;6.30;;;12.30;93.10;;;12.36;63.23;94512.66;5055088;28;20483;-54
2022/04/24 00:17:45;;;;;;;9.80;5.10;;;12.30;93.30;;;12.33;62.93;94511.19;5054645;28;20466;-54
2022/04/24 00:20:13;;;;;;;9.40;6.30;;;12.20;93.20;;;12.31;63.33;94520.22;5053971;28;20495;-56
2022/04/24 00:22:40;;;;;;;14.40;6.87;;;12.20;93.40;;;12.27;63.17;94514.47;5058016;28;20455;-56
2022/04/24 00:25:10;;;;;;;9.50;6.20;;;12.20;93.40;;;12.25;63.80;94511.13;5054513;28;20480;-57
2022/04/24 00:27:37;;;;;;;12.27;5.53;;;12.20;94.10;;;12.23;63.91;94507.84;5055583;28;20514;-55
2022/04/24 00:30:05;;;;;;;26.57;6.50;;;12.10;93.80;;;12.20;63.29;94508.97;5057259;28;20480;-54
2022/04/24 00:32:32;;;;;;;13.40;5.60;;;12.10;93.90;;;12.18;63.97;94510.13;5058444;28;20466;-57
2022/04/24 00:35:00;;;;;;;17.73;6.40;;;12.10;94.00;;;12.14;63.61;94514.88;5058456;28;20490;-56
2022/04/24 00:37:28;;;;;;;14.40;6.23;;;12.10;94.00;;;12.13;64.12;94522.94;5054509;28;20452;-56
2022/04/24 00:39:55;;;;;;;17.17;6.87;;;12.00;94.10;;;12.10;63.92;94518.00;5056017;28;20570;-55
2022/04/24 00:42:24;;;;;;;13.43;6.30;;;12.00;94.10;;;12.07;63.81;94518.31;5055642;28;20464;-55
2022/04/24 00:44:51;;;;;;;11.73;4.70;;;12.00;94.10;;;12.00;64.21;94513.66;5053782;28;20489;-56
2022/04/24 00:47:19;;;;;;;13.50;6.17;;;11.90;94.40;;;11.95;64.38;94508.03;5055290;28;20978;-54
2022/04/24 00:49:47;;;;;;;10.73;5.10;;;11.90;94.20;;;11.93;64.52;94511.81;5053560;28;21095;-53
2022/04/24 00:52:14;;;;;;;6.50;5.20;;;11.90;94.50;;;11.91;64.36;94513.75;5053874;28;20460;-55
2022/04/24 00:54:41;;;;;;;11.87;6.20;;;11.80;94.40;;;11.89;64.59;94523.63;5054032;28;20455;-55
2022/04/24 00:57:10;;;;;;;14.10;6.27;;;11.80;94.60;;;11.82;64.53;94519.00;5053320;28;20835;-55
2022/04/24 00:59:38;;;;;;;8.07;5.90;;;11.80;94.60;;;11.81;64.59;94519.97;5057431;28;20846;-56
2022/04/24 01:02:06;;;;;;;18.00;6.27;;;11.70;94.50;;;11.77;64.54;94523.91;5054128;28;20584;-56
2022/04/24 01:04:34;;;;;;;10.70;6.53;;;11.70;94.50;;;11.74;64.33;94533.91;5056325;28;20479;-56
2022/04/24 01:07:01;;;;;;;17.43;6.20;;;11.70;94.40;;;11.71;64.75;94534.22;5056054;28;20466;-55
2022/04/24 01:09:29;;;;;;;20.83;7.00;;;11.60;94.60;;;11.67;64.41;94539.00;5056710;28;20969;-56
2022/04/24 01:11:57;;;;;;;18.10;6.70;;;11.60;94.40;;;11.62;64.57;94536.81;5057910;28;20474;-55
2022/04/24 01:14:25;;;;;;;14.17;6.03;;;11.60;94.50;;;11.59;64.57;94534.50;5055257;28;20459;-56
2022/04/24 01:16:54;;;;;;;15.57;6.80;;;11.50;94.50;;;11.57;64.61;94530.34;5057582;28;21200;-54
2022/04/24 01:19:21;;;;;;;11.93;6.73;;;11.50;94.60;;;11.54;64.84;94538.56;5056584;28;20455;-54
2022/04/24 01:21:50;;;;;;;17.10;6.17;;;11.50;94.70;;;11.51;64.80;94538.88;5054156;28;20869;-55
2022/04/24 01:24:18;;;;;;;15.57;6.80;;;11.50;94.70;;;11.48;64.87;94543.47;5051568;28;20452;-55
2022/04/24 01:26:46;;;;;;;14.93;6.73;;;11.40;94.70;;;11.45;64.67;94542.97;5048534;28;21097;-55
2022/04/24 01:29:14;;;;;;;14.47;6.90;;;11.40;94.70;;;11.42;64.78;94551.16;5054288;28;20471;-54
2022/04/24 01:31:41;;;;;;;14.30;7.00;;;11.40;94.80;;;11.39;64.83;94544.38;5052175;28;20967;-57
2022/04/24 01:34:09;;;;;;;13.67;6.47;;;11.30;94.90;;;11.36;64.88;94543.88;5051215;28;20470;-56
2022/04/24 01:36:36;;;;;;;13.47;6.90;;;11.30;94.80;;;11.34;64.64;94549.28;5054238;28;20475;-56
2022/04/24 01:39:05;;;;;;;17.83;6.63;;;11.30;94.80;;;11.32;64.92;94551.22;5053012;28;20455;-56
2022/04/24 01:41:33;;;;;;;15.83;6.40;;;11.30;94.80;;;11.29;65.14;94543.63;5058437;28;20565;-54
2022/04/24 01:44:00;;;;;;;8.80;4.70;;;11.20;95.10;;;11.27;64.84;94553.50;5055001;28;20470;-56
2022/04/24 01:46:27;;;;;;;12.23;5.27;;;11.20;94.80;;;11.25;64.85;94561.56;5055225;28;20998;-56
2022/04/24 01:48:54;;;;;;;15.87;5.30;;;11.20;94.80;;;11.24;64.91;94557.25;5054226;28;20459;-56
2022/04/24 01:51:22;;;;;;;10.40;5.70;;;11.20;95.00;;;11.23;65.00;94558.25;5054088;28;20497;-54
2022/04/24 01:53:49;;;;;;;8.33;3.77;;;11.20;95.10;;;11.21;65.23;94557.56;5053978;28;20456;-56
2022/04/24 01:56:17;;;;;;;7.07;4.10;;;11.20;95.10;;;11.21;65.23;94554.09;5053473;28;20482;-55
2022/04/24 01:58:45;;;;;;;14.23;4.30;;;11.20;95.10;;;11.20;65.17;94552.44;5050915;28;20547;-55
2022/04/24 02:01:12;;;;;;;9.00;3.50;;;11.10;95.00;;;11.18;65.01;94551.78;5052931;28;20510;-54
2022/04/24 02:03:40;;;;;;;7.80;4.60;;;11.10;95.00;;;11.18;65.19;94551.78;5053927;28;20553;-56
2022/04/24 02:06:07;;;;;;;8.47;4.70;;;11.10;95.00;;;11.16;65.02;94551.94;5053259;28;20556;-54
2022/04/24 02:08:36;;;;;;;10.67;5.30;;;11.10;95.00;;;11.14;65.55;94553.91;5052785;28;20460;-55
2022/04/24 02:11:04;;;;;;;7.17;4.03;;;11.10;95.30;;;11.11;65.17;94560.28;5055125;28;20475;-56
2022/04/24 02:13:33;;;;;;;11.07;4.70;;;11.00;95.00;;;11.08;65.35;94550.06;5054999;28;20858;-56
2022/04/24 02:16:00;;;;;;;11.20;4.37;;;11.00;95.20;;;11.07;65.61;94556.28;5054915;28;20467;-56
2022/04/24 02:18:27;;;;;;;6.00;3.60;;;11.00;95.30;;;11.05;65.53;94558.25;5056893;28;20455;-56
2022/04/24 02:20:54;;;;;;;7.13;4.07;;;11.00;95.40;;;11.04;65.70;94561.84;5055306;28;20495;-55
2022/04/24 02:23:22;;;;;;;13.37;5.23;;;11.00;95.60;;;11.03;65.80;94565.47;5053521;28;20468;-54
2022/04/24 02:25:49;;;;;;;6.33;3.57;;;11.00;95.60;;;11.02;65.81;94566.44;5055614;28;20475;-57
2022/04/24 02:28:17;;;;;;;4.40;3.87;;;10.90;95.60;;;10.99;65.83;94561.47;5057239;28;20464;-56
2022/04/24 02:30:45;;;;;;;18.97;4.93;;;10.90;95.60;;;11.00;66.00;94562.28;5056499;28;20495;-55
2022/04/24 02:33:13;;;;;;;3.97;3.57;;;10.90;95.70;;;10.97;65.91;94563.44;5058206;28;20843;-55
2022/04/24 02:35:40;;;;;;;5.77;3.80;;;10.90;95.80;;;10.96;66.01;94567.03;5048586;28;20484;-56
2022/04/24 02:38:07;;;;;;;6.77;4.50;;;10.90;95.80;;;10.94;66.19;94567.19;5058834;28;20455;-55
2022/04/24 02:40:34;;;;;;;6.93;3.87;;;10.90;95.90;;;10.93;66.01;94567.34;5053633;28;20486;-54
2022/04/24 02:43:02;;;;;;;8.20;4.77;;;10.90;95.80;;;10.88;65.75;94572.22;5051909;28;20849;-55
2022/04/24 02:45:29;;;;;;;9.53;3.80;;;10.90;95.60;;;10.83;65.65;94569.19;5056396;28;20535;-53
2022/04/24 02:47:58;;;;;;;6.80;4.47;;;10.80;95.40;;;10.77;65.81;94563.56;5056532;28;20812;-56
2022/04/24 02:50:25;;;;;;;10.40;3.57;;;10.80;95.60;;;10.72;66.10;94570.22;5056790;28;20578;-55
2022/04/24 02:52:54;;;;;;;12.47;3.63;;;10.70;95.60;;;10.67;65.79;94569.88;5055443;28;20498;-56
2022/04/24 02:55:21;;;;;;;7.50;4.10;;;10.60;95.60;;;10.63;66.09;94584.28;5060723;28;20482;-56
2022/04/24 02:57:48;;;;;;;12.03;4.00;;;10.60;95.80;;;10.61;66.43;94580.97;5059353;28;20830;-55
2022/04/24 03:00:19;;;;;;;21.57;3.63;;;10.60;96.10;;;10.58;66.18;94576.81;5057268;28;20482;-54
2022/04/24 03:02:47;;;;;;;6.53;3.60;;;10.50;95.90;;;10.59;66.23;94581.13;5057392;28;20579;-54
2022/04/24 03:05:16;;;;;;;4.80;4.07;;;10.50;96.10;;;10.59;66.23;94575.84;5060643;28;20493;-57
2022/04/24 03:07:44;;;;;;;11.30;3.90;;;10.50;96.00;;;10.61;66.46;94581.78;5058905;28;20466;-54
2022/04/24 03:10:11;;;;;;;6.40;5.27;;;10.50;96.10;;;10.60;66.17;94585.41;5055182;28;20516;-56
2022/04/24 03:12:38;;;;;;;10.27;4.23;;;10.50;96.10;;;10.59;66.64;94586.38;5057509;28;20645;-54
2022/04/24 03:15:06;;;;;;;7.17;4.00;;;10.50;96.20;;;10.59;66.42;94583.75;5059037;28;20482;-55
2022/04/24 03:17:34;;;;;;;6.43;4.40;;;10.50;96.30;;;10.58;66.54;94584.72;5057414;28;20448;-56
2022/04/24 03:20:01;;;;;;;8.50;3.83;;;10.50;96.30;;;10.59;66.89;94591.63;5057636;28;20483;-56
2022/04/24 03:22:30;;;;;;;4.03;3.60;;;10.50;96.50;;;10.59;66.71;94597.72;5054931;28;20487;-56
2022/04/24 03:24:58;;;;;;;5.60;4.33;;;10.50;96.40;;;10.60;66.63;94593.31;5059617;28;20489;-55
2022/04/24 03:27:25;;;;;;;7.33;4.43;;;10.50;96.40;;;10.59;66.85;94600.34;5058511;28;20497;-56
2022/04/24 03:29:53;;;;;;;4.60;3.90;;;10.50;96.50;;;10.60;66.62;94609.09;5055057;28;20556;-56
2022/04/24 03:32:20;;;;;;;9.37;4.03;;;10.50;96.40;;;10.58;66.83;94600.50;5058272;28;20495;-56
2022/04/24 03:34:47;;;;;;;6.33;4.00;;;10.50;96.50;;;10.58;66.77;94592.59;5060059;28;20482;-55
2022/04/24 03:37:14;;;;;;;5.90;3.93;;;10.50;96.50;;;10.56;66.80;94586.66;5055945;28;20459;-56
2022/04/24 03:39:43;;;;;;;10.40;4.63;;;10.50;96.50;;;10.55;67.02;94585.84;5051584;28;20798;-56
2022/04/24 03:42:10;;;;;;;6.27;4.07;;;10.50;96.50;;;10.55;67.14;94592.91;5057809;28;20506;-55
2022/04/24 03:44:37;;;;;;;10.37;4.30;;;10.50;96.70;;;10.55;66.79;94590.25;5056948;28;20680;-57
2022/04/24 03:47:06;;;;;;;6.87;4.27;;;10.50;96.50;;;10.56;66.95;94589.31;5055280;28;20460;-56
2022/04/24 03:49:33;;;;;;;7.17;5.00;;;10.50;96.60;;;10.57;66.77;94591.78;5055499;28;20550;-56
2022/04/24 03:52:01;;;;;;;8.13;3.93;;;10.50;96.50;;;10.58;66.67;94608.38;5052562;28;20494;-55
2022/04/24 03:54:28;;;;;;;7.53;3.57;;;10.50;96.40;;;10.58;66.82;94597.84;5053703;28;20454;-55
2022/04/24 03:56:56;;;;;;;14.47;4.67;;;10.50;96.50;;;10.58;66.97;94605.75;5055058;28;20485;-56
2022/04/24 03:59:24;;;;;;;4.23;3.67;;;10.50;96.50;;;10.59;66.95;94607.41;5056559;28;20516;-54
2022/04/24 04:01:52;;;;;;;10.50;4.77;;;10.50;96.60;;;10.59;66.50;94610.88;5058261;28;21084;-56
2022/04/24 04:04:19;;;;;;;14.37;3.73;;;10.50;96.50;;;10.59;66.71;94613.50;5056975;28;20473;-57
2022/04/24 04:06:47;;;;;;;16.10;3.87;;;10.50;96.50;;;10.59;66.93;94608.22;5053895;28;21708;-55
2022/04/24 04:09:14;;;;;;;7.37;3.97;;;10.50;96.60;;;10.63;66.77;94603.53;5059875;28;20463;-54
2022/04/24 04:11:41;;;;;;;11.43;4.27;;;10.60;96.70;;;10.67;66.55;94615.41;5057136;28;20940;-55
2022/04/24 04:14:10;;;;;;;8.40;4.53;;;10.60;96.60;;;10.71;67.02;94610.69;5056999;28;20463;-56
2022/04/24 04:16:37;;;;;;;12.60;4.67;;;10.60;96.90;;;10.73;66.73;94612.19;5057740;28;20489;-55
2022/04/24 04:19:04;;;;;;;12.63;3.90;;;10.60;96.70;;;10.77;66.72;94624.06;5058499;28;20982;-56
2022/04/24 04:21:32;;;;;;;5.20;4.40;;;10.70;97.00;;;10.83;66.82;94621.81;5054331;28;20500;-56
2022/04/24 04:23:59;;;;;;;10.60;5.00;;;10.70;96.60;;;10.85;66.89;94623.34;5058142;28;20489;-56
2022/04/24 04:26:26;;;;;;;10.97;4.90;;;10.80;96.60;;;10.88;66.58;94628.31;5051823;28;20486;-55
2022/04/24 04:28:54;;;;;;;16.93;5.80;;;10.80;96.50;;;10.91;66.40;94627.19;5055238;28;20455;-55
2022/04/24 04:31:22;;;;;;;14.17;5.63;;;10.80;96.40;;;10.97;66.23;94634.50;5054503;28;20807;-56
2022/04/24 04:33:50;;;;;;;15.70;5.63;;;10.90;96.30;;;11.05;66.13;94634.56;5050176;28;20530;-57
2022/04/24 04:36:17;;;;;;;9.13;4.80;;;11.00;96.30;;;11.11;65.95;94633.97;5055046;28;20909;-56
2022/04/24 04:38:44;;;;;;;12.70;5.17;;;11.00;96.10;;;11.16;65.82;94637.97;5056478;28;20535;-55
2022/04/24 04:41:12;;;;;;;9.93;5.87;;;11.10;96.00;;;11.21;65.63;94646.25;5055849;28;20570;-56
2022/04/24 04:43:39;;;;;;;12.57;6.00;;;11.10;95.90;;;11.25;65.70;94639.72;5055112;28;20562;-56
2022/04/24 04:46:06;;;;;;;14.97;6.23;;;11.20;96.00;;;11.31;65.61;94639.13;5058897;28;20485;-55
2022/04/24 04:48:35;;;;;;;12.23;5.37;;;11.20;95.90;;;11.35;65.59;94642.25;5053437;28;20554;-56
2022/04/24 04:51:02;;;;;;;18.43;6.40;;;11.30;95.90;;;11.39;65.65;94641.81;5057204;28;20630;-56
2022/04/24 04:53:29;;;;;;;10.33;6.57;;;11.30;95.90;;;11.43;65.60;94643.19;5057737;28;20450;-57
2022/04/24 04:55:57;;;;;;;14.63;6.63;;;11.30;95.80;;;11.48;65.47;94646.19;5058689;28;20508;-55
2022/04/24 04:58:24;;;;;;;14.53;6.43;;;11.40;95.80;;;11.54;65.10;94641.28;5053545;28;20459;-54
2022/04/24 05:00:51;;;;;;;11.37;6.50;;;11.40;95.60;;;11.57;65.22;94643.59;5057381;28;20477;-57
2022/04/24 05:03:19;;;;;;;14.93;6.37;;;11.50;95.70;;;11.63;65.04;94643.84;5054721;28;20487;-57
2022/04/24 05:05:47;;;;;;;19.60;6.90;;;11.50;95.50;;;11.67;64.89;94641.72;5058586;28;20494;-56
2022/04/24 05:08:15;;;;;;;15.53;7.13;;;11.60;95.30;;;11.71;65.06;94644.88;5053753;28;20452;-55
2022/04/24 05:10:42;;;;;;;11.83;6.63;;;11.60;95.50;;;11.75;64.93;94644.41;5051891;28;20490;-55
2022/04/24 05:13:10;;;;;;;14.30;6.20;;;11.70;95.30;;;11.82;65.09;94644.66;5049126;28;20990;-55
2022/04/24 05:15:37;;;;;;;9.57;5.50;;;11.70;95.30;;;11.87;64.94;94641.53;5053664;28;20479;-55
2022/04/24 05:18:04;;;;;;;11.60;6.50;;;11.80;95.40;;;11.95;64.84;94647.75;5052584;28;20828;-57
2022/04/24 05:20:32;;;;;;;13.73;5.30;;;11.80;95.40;;;12.03;64.74;94652.25;5056177;28;20873;-56
2022/04/24 05:23:10;;;;;;;7.17;5.07;;;11.90;95.40;;;12.14;64.49;94646.69;5051052;28;20506;-56
2022/04/24 05:25:37;;;;;;;6.97;4.07;;;12.00;95.40;;;12.26;64.26;94641.19;5058783;28;20482;-56
2022/04/24 05:28:05;;;;;;;9.90;4.90;;;12.10;95.10;;;12.41;63.85;94649.34;5057946;28;20454;-55
2022/04/24 05:30:33;;;;;;;11.23;4.50;;;12.20;95.00;;;12.58;63.70;94639.69;5058703;28;20470;-57
2022/04/24 05:33:00;;;;;;;14.50;5.00;;;12.40;94.90;;;12.77;63.55;94638.66;5057493;28;20478;-56
2022/04/24 05:35:27;;;;;;;8.63;3.73;;;12.60;94.60;;;12.91;62.97;94636.19;5056905;28;20482;-56
2022/04/24 05:37:55;;;;;;;5.50;3.40;;;12.70;94.30;;;13.13;62.87;94644.53;5056113;28;20456;-55
2022/04/24 05:40:24;;;;;;;5.13;3.70;;;12.90;94.10;;;13.40;62.21;94639.97;5051459;28;20875;-56
2022/04/24 05:42:53;;;;;;;5.87;4.87;;;13.10;94.00;;;13.66;61.39;94636.38;5056976;28;21077;-54
2022/04/24 05:45:22;;;;;;;5.23;3.93;;;13.40;93.50;;;13.88;60.89;94645.47;5055931;28;20849;-57
2022/04/24 05:47:50;;;;;;;9.60;3.97;;;13.60;93.10;;;14.06;60.82;94645.31;5054960;28;20439;-56
2022/04/24 05:50:17;;;;;;;8.60;3.73;;;13.80;92.80;;;14.30;60.58;94647.91;5053174;28;20495;-55
2022/04/24 05:52:44;;;;;;;7.93;3.50;;;14.00;92.90;;;14.62;60.03;94643.53;5054816;28;21085;-56
2022/04/24 05:55:12;;;;;;;6.10;3.17;;;14.30;92.70;;;14.93;59.45;94644.59;5059068;28;20478;-57
2022/04/24 05:57:40;;;;;;;9.07;4.30;;;14.50;92.20;;;15.23;58.80;94640.34;5058564;28;20549;-56
2022/04/24 06:00:09;;;;;;;8.67;4.13;;;14.80;91.70;;;15.53;58.36;94645.78;5051353;28;20497;-56
2022/04/24 06:02:37;;;;;;;10.53;4.90;;;15.10;91.20;;;15.80;57.61;94647.13;5055281;28;20574;-54
2022/04/24 06:05:04;;;;;;;25.53;8.17;;;15.40;90.60;;;15.99;56.92;94635.19;5055836;28;20502;-58
2022/04/24 06:07:32;;;;;;;12.53;5.10;;;15.60;90.10;;;16.09;56.70;94634.94;5056652;28;20954;-57
2022/04/24 06:09:59;;;;;;;7.43;4.23;;;15.80;89.30;;;16.18;56.33;94633.03;5058104;28;20483;-55
2022/04/24 06:12:26;;;;;;;9.43;5.57;;;15.80;88.30;;;16.34;55.94;94627.56;5059464;28;20462;-54
2022/04/24 06:14:55;;;;;;;12.03;5.50;;;16.00;88.20;;;16.44;55.61;94630.78;5057812;28;21095;-56
2022/04/24 06:17:22;;;;;;;6.37;5.23;;;16.10;87.10;;;16.59;55.25;94630.81;5054455;28;20459;-57
2022/04/24 06:19:50;;;;;;;7.73;4.60;;;16.20;86.90;;;16.74;55.33;94630.78;5058167;28;20534;-57
2022/04/24 06:22:17;;;;;;;13.47;4.90;;;16.40;86.50;;;16.96;54.70;94630.88;5054451;28;21044;-58
2022/04/24 06:24:44;;;;;;;24.17;5.50;;;16.60;86.10;;;17.18;54.67;94621.97;5057900;28;20459;-57
2022/04/24 06:27:12;;;;;;;17.93;5.03;;;16.80;85.50;;;17.43;54.46;94620.78;5050615;28;21126;-55
2022/04/24 06:29:39;;;;;;;11.20;5.00;;;17.00;86.10;;;17.63;54.19;94621.84;5056316;28;20525;-57
2022/04/24 06:32:09;;;;;;;15.60;5.20;;;17.20;84.50;;;17.77;53.95;94619.28;5055002;28;20604;-57
2022/04/24 06:34:37;;;;;;;6.93;5.47;;;17.40;83.60;;;17.96;53.74;94620.53;5054846;28;20821;-57
2022/04/24 06:37:05;;;;;;;16.17;5.47;;;17.50;83.60;;;18.19;53.31;94625.63;5056478;28;20863;-55
2022/04/24 06:39:33;;;;;;;7.00;4.93;;;17.70;83.50;;;18.49;53.18;94623.59;5053098;28;20484;-56
2022/04/24 06:42:01;;;;;;;10.57;4.87;;;18.00;82.70;;;18.74;52.75;94623.13;5056992;28;20859;-58
2022/04/24 06:44:28;;;;;;;9.20;5.60;;;18.30;81.60;;;18.94;51.76;94629.41;5059639;28;20550;-56
2022/04/24 06:46:55;;;;;;;9.10;5.10;;;18.50;79.70;;;19.12;51.03;94630.72;5060047;28;20454;-57
2022/04/24 06:49:24;;;;;;;12.57;5.10;;;18.70;79.20;;;19.36;51.38;94626.69;5057611;28;20936;-56
2022/04/24 06:51:51;;;;;;;11.53;5.27;;;18.90;78.60;;;19.64;50.62;94623.94;5055919;28;20493;-57
2022/04/24 06:54:18;;;;;;;6.10;5.50;;;19.20;77.80;;;19.92;49.67;94617.59;5057704;28;20799;-57
2022/04/24 06:56:46;;;;;;;7.43;5.37;;;19.40;75.50;;;20.09;49.10;94612.69;5059633;28;20477;-58
2022/04/24 06:59:13;;;;;;;10.93;6.80;;;19.70;75.00;;;20.28;49.46;94619.06;5055551;28;20463;-56
2022/04/24 07:01:41;;;;;;;10.17;5.40;;;19.80;74.40;;;20.46;48.59;94609.59;5055550;28;20892;-55
2022/04/24 07:04:08;;;;;;;8.43;5.60;;;20.00;72.70;;;20.53;47.98;94602.41;5050359;28;21044;-56
2022/04/24 07:06:36;;;;;;;7.77;5.83;;;20.10;71.70;;;20.64;48.33;94601.75;5053081;28;21048;-54
2022/04/24 07:09:04;;;;;;;11.17;6.27;;;20.20;71.40;;;20.89;47.80;94604.59;5061123;28;20524;-57
2022/04/24 07:11:32;;;;;;;9.30;6.80;;;20.40;70.90;;;21.19;47.32;94600.59;5057994;28;20902;-56
2022/04/24 07:13:59;;;;;;;8.30;7.00;;;20.70;69.60;;;21.46;46.83;94595.94;5058491;28;20517;-56
2022/04/24 07:16:27;;;;;;;11.03;7.13;;;21.00;68.60;;;21.70;45.68;94599.72;5058087;28;20640;-57
2022/04/24 07:18:54;;;;;;;6.70;6.00;;;21.20;66.70;;;21.84;45.92;94590.59;5058687;28;20927;-55
2022/04/24 07:21:21;;;;;;;8.23;5.97;;;21.40;65.60;;;21.93;45.36;94588.44;5059412;28;21006;-56
2022/04/24 07:23:50;;;;;;;7.67;5.13;;;21.50;64.50;;;21.95;44.96;94589.06;5058197;28;20544;-54
2022/04/24 07:26:17;;;;;;;10.83;6.27;;;21.50;63.80;;;22.10;45.18;94580.69;5059243;28;20478;-56
2022/04/24 07:28:44;;;;;;;7.83;6.03;;;21.60;63.30;;;22.36;44.45;94586.91;5057671;28;20448;-56
2022/04/24 07:31:14;;;;;;;14.90;5.17;;;21.80;61.80;;;22.63;44.21;94589.31;5058763;28;20579;-55
2022/04/24 07:33:41;;;;;;;11.63;5.20;;;22.10;61.40;;;22.86;43.34;94580.63;5055915;28;20465;-55
2022/04/24 07:36:09;;;;;;;13.07;5.20;;;22.30;60.60;;;23.05;43.08;94584.94;5057581;28;20463;-56
2022/04/24 07:38:36;;;;;;;7.50;4.63;;;22.60;60.00;;;23.33;42.76;94585.47;5052871;28;20452;-57
2022/04/24 07:41:05;;;;;;;12.90;4.40;;;22.80;59.10;;;23.56;42.07;94582.06;5054033;28;20948;-55
2022/04/24 07:43:33;;;;;;;7.53;3.70;;;23.00;58.40;;;23.79;41.88;94586.69;5053044;28;20576;-55
2022/04/24 07:46:00;;;;;;;12.90;4.93;;;23.20;57.40;;;24.06;41.26;94580.94;5053461;28;20604;-56
2022/04/24 07:48:28;;;;;;;7.67;3.80;;;23.50;57.20;;;24.24;41.01;94570.09;5055830;28;20464;-55
2022/04/24 07:50:55;;;;;;;5.93;3.93;;;23.70;55.80;;;24.35;40.84;94576.53;5058042;28;20475;-55
2022/04/24 07:53:22;;;;;;;3.93;3.33;;;23.90;55.30;;;24.44;40.08;94579.69;5058879;28;20451;-56
2022/04/24 07:55:50;;;;;;;9.37;3.37;;;24.00;54.60;;;24.58;39.52;94570.34;5059399;28;20494;-56
2022/04/24 07:58:19;;;;;;;9.73;3.60;;;24.10;53.80;;;24.70;39.45;94573.84;5057580;28;20458;-56
2022/04/24 08:00:47;;;;;;;6.50;3.53;;;24.30;53.50;;;24.84;39.67;94568.25;5059226;28;20473;-56
2022/04/24 08:03:15;;;;;;;8.53;2.83;;;24.40;53.00;;;25.03;39.16;94567.00;5056157;28;20477;-54
2022/04/24 08:05:44;;;;;;;10.77;3.27;;;24.50;52.80;;;25.34;38.67;94562.28;5057176;28;20887;-56
2022/04/24 08:08:14;;;;;;;7.53;3.37;;;24.80;53.00;;;25.75;38.60;94557.66;5057364;28;20462;-55
2022/04/24 08:10:43;;;;;;;10.43;3.63;;;25.20;52.50;;;26.16;38.36;94562.94;5059221;28;20573;-55
2022/04/24 08:13:11;;;;;;;13.50;3.67;;;25.70;52.10;;;26.56;37.57;94550.34;5054582;28;20846;-57
2022/04/24 08:15:39;;;;;;;6.37;3.43;;;26.10;51.50;;;26.91;37.13;94547.34;5062028;28;20466;-55
2022/04/24 08:18:07;;;;;;;10.47;3.23;;;26.50;50.10;;;27.04;36.06;94551.56;5053029;28;20478;-55
2022/04/24 08:20:35;;;;;;;8.90;2.90;;;26.60;48.70;;;27.05;36.08;94546.97;5054087;28;20518;-55
2022/04/24 08:23:03;;;;;;;15.97;3.40;;;26.70;48.70;;;27.19;36.30;94532.03;5053432;28;20494;-57
2022/04/24 08:25:34;;;;;;;22.97;3.47;;;26.80;48.80;;;27.47;35.05;94532.91;5054108;28;20891;-55
2022/04/24 08:28:02;;;;;;;4.80;2.93;;;27.00;47.40;;;27.77;35.70;94529.69;5057059;28;20459;-56
2022/04/24 08:30:29;;;;;;;7.83;3.10;;;27.20;47.70;;;28.00;34.98;94525.06;5059126;28;20537;-56
2022/04/24 08:32:58;;;;;;;8.83;3.30;;;27.50;47.30;;;28.24;35.33;94525.50;5057749;28;20455;-56
2022/04/24 08:35:25;;;;;;;6.13;3.10;;;27.70;47.10;;;28.43;34.88;94528.63;5060477;28;20840;-54
2022/04/24 08:37:52;;;;;;;5.63;3.00;;;27.90;46.50;;;28.60;34.54;94515.78;5058121;28;20459;-57
2022/04/24 08:40:24;;;;;;;9.37;3.70;;;28.10;45.90;;;28.82;33.45;94519.41;5058762;28;20477;-55
2022/04/24 08:42:51;;;;;;;4.20;3.13;;;28.30;44.40;;;28.94;33.82;94523.53;5055959;28;20474;-55
2022/04/24 08:45:18;;;;;;;6.93;3.50;;;28.40;44.80;;;29.03;32.96;94525.72;5056943;28;20535;-56
2022/04/24 08:47:46;;;;;;;8.70;3.90;;;28.50;44.20;;;28.94;33.19;94523.53;5056416;28;20962;-55
2022/04/24 08:50:15;;;;;;;6.67;3.13;;;28.50;44.20;;;29.01;32.94;94522.47;5053241;28;20535;-57
2022/04/24 08:52:44;;;;;;;6.50;3.33;;;28.50;44.20;;;29.19;33.19;94515.75;5054808;28;20467;-55
2022/04/24 08:55:11;;;;;;;4.47;3.07;;;28.60;43.90;;;29.40;32.92;94508.56;5052312;28;20551;-57
2022/04/24 08:57:38;;;;;;;10.07;2.70;;;28.80;43.40;;;29.57;32.19;94503.69;5053918;28;20489;-55
2022/04/24 09:00:07;;;;;;;8.90;3.00;;;29.00;42.10;;;29.64;32.32;94501.56;5051059;28;20463;-57
2022/04/24 09:02:35;;;;;;;6.90;2.90;;;29.10;42.80;;;29.74;32.26;94505.38;5053422;28;20533;-56
2022/04/24 09:05:04;;;;;;;9.50;3.10;;;29.20;42.90;;;29.93;31.62;94495.66;5056379;28;20482;-56
2022/04/24 09:07:33;;;;;;;6.30;2.87;;;29.40;42.50;;;30.07;31.81;94495.09;5057084;28;20466;-58
2022/04/24 09:10:04;;;;;;;8.90;2.50;;;29.50;41.90;;;30.15;31.40;94494.56;5054122;28;20537;-58
2022/04/24 09:12:32;;;;;;;10.10;2.83;;;29.60;41.40;;;30.11;31.20;94490.78;5055521;28;20477;-55
2022/04/24 09:15:00;;;;;;;4.73;2.90;;;29.60;41.40;;;30.11;31.41;94493.47;5055574;28;20476;-56
2022/04/24 09:17:28;;;;;;;8.13;2.87;;;29.60;40.90;;;30.00;31.49;94495.38;5056671;28;20664;-56
2022/04/24 09:19:56;;;;;;;9.77;2.30;;;29.50;40.90;;;30.04;31.01;94482.91;5059441;28;20477;-57
2022/04/24 09:22:24;;;;;;;7.03;2.60;;;29.50;41.00;;;30.13;30.88;94488.59;5056144;28;20468;-58
2022/04/24 09:24:55;;;;;;;16.90;3.00;;;29.60;40.70;;;30.04;31.06;94478.28;5056775;28;20494;-57
2022/04/24 09:27:24;;;;;;;9.43;2.70;;;29.60;40.80;;;29.91;31.13;94476.13;5059147;28;20806;-57
2022/04/24 09:29:54;;;;;;;6.90;2.07;;;29.40;40.40;;;29.69;31.35;94473.66;5055134;28;20466;-57
2022/04/24 09:32:21;;;;;;;11.97;2.13;;;29.20;40.30;;;29.54;30.39;94470.91;5054620;28;20458;-56
2022/04/24 09:34:48;;;;;;;3.53;2.07;;;29.00;40.10;;;29.48;30.71;94461.94;5051964;28;20502;-59
2022/04/24 09:37:16;;;;;;;6.80;2.73;;;29.00;40.60;;;29.40;30.75;94460.59;5054891;28;21008;-55
2022/04/24 09:39:43;;;;;;;41.00;3.07;;;28.90;40.40;;;29.48;30.86;94451.13;5053634;28;20467;-58
2022/04/24 09:42:12;;;;;;;3.47;2.13;;;28.90;41.10;;;29.71;31.21;94454.41;5055022;28;20462;-58
2022/04/24 09:44:42;;;;;;;18.77;2.47;;;29.00;40.70;;;29.95;30.46;94455.50;5057313;28;20486;-58
2022/04/24 09:47:09;;;;;;;4.57;2.77;;;29.30;40.90;;;30.18;31.08;94446.00;5060022;28;20631;-57
2022/04/24 09:49:38;;;;;;;5.57;2.80;;;29.50;40.50;;;30.36;29.19;94457.34;5065652;28;20887;-55
2022/04/24 09:52:10;;;;;;;12.73;3.27;;;29.70;37.90;;;30.38;30.10;94447.03;5061911;28;20537;-54
2022/04/24 09:54:40;;;;;;;6.67;2.80;;;29.80;39.20;;;30.41;30.30;94437.56;5063833;28;20592;-56
2022/04/24 09:57:09;;;;;;;7.90;2.43;;;29.80;39.20;;;30.51;30.08;94427.50;5064735;28;20549;-56
2022/04/24 09:59:38;;;;;;;4.17;2.20;;;29.90;39.00;;;30.49;29.59;94423.44;5061854;28;20540;-59
2022/04/24 10:02:06;;;;;;;6.00;2.20;;;29.90;38.50;;;30.37;29.37;94423.72;5062768;28;20468;-57
2022/04/24 10:04:35;;;;;;;13.30;2.00;;;29.80;37.40;;;30.18;28.43;94420.78;5061638;28;20504;-55
2022/04/24 10:07:07;;;;;;;8.33;2.50;;;29.70;37.50;;;29.81;28.29;94411.88;5062767;28;20459;-57
2022/04/24 10:09:35;;;;;;;6.23;1.70;;;29.50;36.70;;;29.41;28.99;94408.03;5062916;28;20965;-56
2022/04/24 10:12:05;;;;;;;4.30;2.03;;;29.10;37.60;;;29.21;29.77;94397.19;5057855;28;20917;-55
2022/04/24 10:14:34;;;;;;;6.80;2.30;;;28.80;37.80;;;29.11;29.42;94398.75;5058893;28;20454;-57
2022/04/24 10:17:16;;;;;;;5.53;2.43;;;28.60;38.50;;;29.15;29.91;94391.69;5065782;28;20521;-57